ADDS METAR Data INFO
IDs: Format: Raw Decoded Include TAF

Data at: 1812 UTC 18 Feb 2018

KXVG 181755Z AUTO 07006KT 3/4SM -SN OVC007 M08/M10 A2971 RMK AO2
KXVG 181736Z AUTO 07007KT 044V104 3/4SM -SN OVC005 M08/M11 A2972 RMK AO2
KXVG 181716Z AUTO 11003KT 1/2SM SN OVC005 M08/M11 A2973 RMK AO2
KXVG 181655Z AUTO 07005KT 3/4SM -SN OVC007 M09/M11 A2973 RMK AO2
KXVG 181636Z AUTO 07004KT 1SM -SN BKN007 OVC013 M09/M11 A2974 RMK AO2
KXVG 181616Z AUTO 08006KT 2SM -SN SCT015 BKN021 OVC029 M09/M11 A2976 RMK AO2 VIS 1 1/4V4
KXVG 181555Z AUTO 08004KT 10SM -SN SCT014 BKN031 OVC038 M09/M11 A2978 RMK AO2
KXVG 181535Z AUTO 09004KT 10SM SCT008 BKN031 OVC038 M09/M11 A2980 RMK AO2
KXVG 181516Z AUTO 10003KT 1 1/2SM -SN BKN006 BKN010 OVC033 M09/M11 A2982 RMK AO2
KXVG 181455Z AUTO 08004KT 1/2SM -SN OVC006 M10/M11 A2983 RMK AO2
KXVG 181435Z AUTO 12003KT 1/2SM SN OVC004 M10/M11 A2985 RMK AO2
KXVG 181415Z AUTO 11004KT 5SM -SN SCT014 BKN019 OVC034 M10/M12 A2984 RMK AO2
KXVG 181356Z AUTO 10005KT 2SM -SN BKN013 BKN019 OVC024 M11/M12 A2984 RMK AO2
KXVG 181336Z AUTO 08003KT 2 1/2SM -SN BKN013 BKN025 OVC049 M11/M12 A2985 RMK AO2
KXVG 181316Z AUTO 11003KT 1 3/4SM -SN OVC011 M11/M12 A2986 RMK AO2
KXVG 181256Z AUTO 00000KT 3SM -SN SCT017 BKN021 OVC027 M11/M13 A2987 RMK AO2
KXVG 181236Z AUTO 12003KT 3SM -SN SCT014 BKN020 OVC029 M11/M13 A2989 RMK AO2
KXVG 181215Z AUTO 00000KT 2 1/2SM -SN OVC012 M11/M13 A2989 RMK AO2
KXVG 181155Z AUTO 00000KT 2SM UP OVC012 M11/M14 A2989 RMK AO2
KXVG 181135Z AUTO 10003KT 7SM -SN SCT022 BKN032 OVC055 M12/M15 A2990 RMK AO2
KXVG 181116Z AUTO 00000KT 10SM SCT044 SCT050 OVC065 M12/M16 A2992 RMK AO2
KXVG 181056Z AUTO 00000KT 10SM SCT050 OVC055 M12/M16 A2993 RMK AO2
KXVG 181036Z AUTO 00000KT 10SM SCT050 BKN060 OVC075 M13/M16 A2994 RMK AO2
KXVG 181016Z AUTO 00000KT 10SM BKN060 OVC070 M13/M16 A2996 RMK AO2
KXVG 180956Z AUTO 00000KT 10SM OVC070 M14/M16 A2997 RMK AO2
KXVG 180935Z AUTO 00000KT 10SM BKN080 OVC085 M14/M16 A2997 RMK AO2
KXVG 180915Z AUTO 00000KT 10SM OVC080 M14/M17 A2999 RMK AO2
KXVG 180856Z AUTO 00000KT 10SM OVC080 M14/M17 A2999 RMK AO2
KXVG 180835Z AUTO 00000KT 10SM BKN090 M15/M17 A3000 RMK AO2
KXVG 180815Z AUTO 00000KT 10SM SCT037 SCT100 M16/M17 A2999 RMK AO2
KXVG 180755Z AUTO 00000KT 10SM SCT037 M16/M18 A2999 RMK AO2
KXVG 180736Z AUTO 00000KT 10SM CLR M17/M18 A2997 RMK AO2
KXVG 180716Z AUTO 00000KT 10SM CLR M17/M19 A2997 RMK AO2
KXVG 180656Z AUTO 00000KT 10SM CLR M17/M19 A2997 RMK AO2
KXVG 180635Z AUTO 00000KT 10SM SCT037 M17/M18 A2997 RMK AO2
KXVG 180615Z AUTO 00000KT 10SM OVC039 M16/M18 A2997 RMK AO2
KXVG 180555Z AUTO 00000KT 10SM OVC039 M16/M18 A2997 RMK AO2
KXVG 180535Z AUTO 00000KT 10SM OVC039 M17/M18 A2997 RMK AO2
KXVG 180515Z AUTO 00000KT 10SM OVC039 M17/M19 A2997 RMK AO2
KXVG 180455Z AUTO 00000KT 10SM OVC039 M17/M19 A2996 RMK AO2
KXVG 180435Z AUTO 00000KT 10SM SCT039 M17/M19 A2997 RMK AO2
KXVG 180415Z AUTO 00000KT 10SM CLR M17/M19 A2997 RMK AO2
KXVG 180356Z AUTO 00000KT 10SM CLR M16/M18 A2996 RMK AO2
KXVG 180335Z AUTO 00000KT 10SM CLR M14/M18 A2996 RMK AO2
KXVG 180316Z AUTO 26003KT 10SM CLR M14/M17 A2997 RMK AO2
KXVG 180255Z AUTO 25003KT 10SM CLR M12/M17 A2997 RMK AO2
KXVG 180235Z AUTO 26004KT 10SM CLR M11/M17 A2996 RMK AO2
KXVG 180215Z AUTO 27005KT 10SM CLR M11/M17 A2996 RMK AO2
KXVG 180155Z AUTO 25003KT 10SM CLR M11/M17 A2996 RMK AO2
KXVG 180135Z AUTO 27004KT 10SM CLR M11/M17 A2995 RMK AO2
KXVG 180115Z AUTO 27004KT 10SM CLR M09/M16 A2994 RMK AO2
KXVG 180055Z AUTO 28004KT 10SM CLR M09/M16 A2994 RMK AO2
KXVG 180036Z AUTO 29005KT 10SM CLR M08/M16 A2993 RMK AO2
KXVG 180016Z AUTO 29006KT 10SM CLR M08/M16 A2992 RMK AO2
KXVG 172355Z AUTO 29008KT 10SM CLR M07/M16 A2991 RMK AO2
KXVG 172335Z AUTO 28010G17KT 10SM CLR M07/M16 A2990 RMK AO2
KXVG 172315Z AUTO 29008G14KT 10SM CLR M06/M16 A2989 RMK AO2
KXVG 172256Z AUTO 29009KT 10SM CLR M06/M17 A2988 RMK AO2
KXVG 172235Z AUTO 30010G14KT 10SM CLR M05/M16 A2988 RMK AO2
KXVG 172216Z AUTO 30009KT 274V344 10SM CLR M04/M16 A2987 RMK AO2
KXVG 172156Z AUTO 29011G16KT 10SM CLR M04/M15 A2987 RMK AO2
KXVG 172136Z AUTO 30008G15KT 10SM SCT037 M04/M13 A2986 RMK AO2
KXVG 172115Z AUTO 30012G17KT 10SM BKN035 OVC042 M05/M12 A2985 RMK AO2
KXVG 172055Z AUTO 29009G15KT 10SM BKN035 M04/M11 A2984 RMK AO2
KXVG 172035Z AUTO 28008G15KT 10SM BKN037 M04/M11 A2983 RMK AO2
KXVG 172016Z AUTO 28010KT 10SM BKN037 OVC045 M03/M12 A2983 RMK AO2
KXVG 171955Z AUTO 26013G16KT 10SM BKN037 OVC043 M03/M11 A2983 RMK AO2
KXVG 171935Z AUTO 26008G15KT 10SM BKN037 OVC043 M04/M11 A2982 RMK AO2
KXVG 171915Z AUTO 28009G14KT 10SM BKN035 OVC045 M04/M11 A2983 RMK AO2
KXVG 171855Z AUTO 27007KT 10SM BKN037 OVC047 M04/M11 A2983 RMK AO2
KXVG 171836Z AUTO 27009KT 10SM BKN035 OVC044 M04/M12 A2983 RMK AO2
KXVG 171815Z AUTO 28008G14KT 10SM BKN036 OVC042 M03/M11 A2983 RMK AO2
KXVG 171756Z AUTO 26006KT 10SM BKN034 M04/M11 A2983 RMK AO2
KXVG 171736Z AUTO 30006KT 10SM SCT032 M04/M11 A2983 RMK AO2
KXVG 171715Z AUTO 30006KT 10SM SCT028 M04/M11 A2982 RMK AO2
KXVG 171655Z AUTO 31004KT 10SM SCT025 SCT030 M04/M11 A2981 RMK AO2
KXVG 171635Z AUTO 28004KT 10SM SCT023 SCT028 M04/M11 A2981 RMK AO2
KXVG 171615Z AUTO 27006KT 10SM SCT025 M05/M11 A2980 RMK AO2
KXVG 171556Z AUTO 27009KT 10SM CLR M06/M10 A2980 RMK AO2
KXVG 171535Z AUTO 26007KT 204V294 10SM CLR M07/M08 A2979 RMK AO2
KXVG 171516Z AUTO 00000KT 10SM CLR M08/M09 A2979 RMK AO2
KXVG 171455Z AUTO 00000KT 10SM CLR M11/M11 A2978 RMK AO2
KXVG 171436Z AUTO 00000KT 10SM CLR M13/M14 A2979 RMK AO2
KXVG 171415Z AUTO 00000KT 10SM CLR M12/M13 A2978 RMK AO2
KXVG 171355Z AUTO 00000KT 10SM CLR M12/M13 A2978 RMK AO2
KXVG 171336Z AUTO 00000KT 10SM CLR M13/M14 A2977 RMK AO2
KXVG 171315Z AUTO 25003KT 10SM CLR M13/M14 A2976 RMK AO2
KXVG 171255Z AUTO 00000KT 10SM CLR M13/M14 A2976 RMK AO2
KXVG 171236Z AUTO 00000KT 10SM CLR M12/M13 A2975 RMK AO2
KXVG 171216Z AUTO 00000KT 10SM CLR M12/M13 A2976 RMK AO2
KXVG 171155Z AUTO 23003KT 10SM CLR M10/M11 A2976 RMK AO2
KXVG 171136Z AUTO 23004KT 10SM CLR M10/M11 A2975 RMK AO2
KXVG 171116Z AUTO 22004KT 10SM CLR M09/M11 A2976 RMK AO2
KXVG 171056Z AUTO 23005KT 10SM CLR M09/M11 A2975 RMK AO2
KXVG 171036Z AUTO 22005KT 10SM CLR M09/M11 A2975 RMK AO2
KXVG 171015Z AUTO 23005KT 10SM CLR M09/M11 A2975 RMK AO2
KXVG 170956Z AUTO 22006KT 10SM CLR M09/M12 A2975 RMK AO2
KXVG 170935Z AUTO 21005KT 10SM CLR M09/M12 A2976 RMK AO2
KXVG 170915Z AUTO 21005KT 10SM CLR M09/M12 A2976 RMK AO2
KXVG 170856Z AUTO 20006KT 10SM CLR M09/M12 A2977 RMK AO2
KXVG 170836Z AUTO 21006KT 10SM CLR M09/M12 A2977 RMK AO2
KXVG 170815Z AUTO 20006KT 10SM SCT080 SCT085 M08/M12 A2977 RMK AO2
KXVG 170755Z AUTO 20008KT 10SM BKN065 BKN090 M08/M12 A2977 RMK AO2
KXVG 170735Z AUTO 21004KT 10SM BKN060 OVC075 M08/M12 A2978 RMK AO2
KXVG 170715Z AUTO 21008KT 10SM BKN060 BKN095 M08/M12 A2979 RMK AO2
KXVG 170656Z AUTO 20005KT 10SM SCT060 SCT095 M08/M13 A2979 RMK AO2
KXVG 170635Z AUTO 19006KT 10SM SCT070 BKN085 M08/M13 A2980 RMK AO2
KXVG 170615Z AUTO 21007KT 10SM OVC070 M08/M13 A2980 RMK AO2